ホノルル の空港の天気 - METARとTAF

ホノルル国際空港 ( PHNL / HNL ) - アメリカ ハワイ州ホノルル
飛行場実況気象(Metar)
観測時間08/15 19:53 HST (08/16 05:53 UTC)
風向・風速東 4m/s
視程10km以上
天気現象
少しの雲 雲底高度 730m
少しの雲 雲底高度 1680m
気温26.7℃
湿度69%
気圧1014.5hPa
METARPHNL 160553Z 08008KT 10SM FEW024 FEW055 27/21 A2996 RMK AO2 SLP145 T02670206 10328 20267 53016
過去の天気等 Google飛行場航空写真 Wunderground天気予報

過去48時間のMETAR

飛行場予報(TAF)
発表時間: 8/15 19:30 HST (8/16 05:30 UTC)
予報対象時間: 15日20時 HST ~ 17日2時 HST
風向・風速東北東 4m/s
視程10km以上
少しの雲 雲底高度 760m
全天の4割程度の雲 雲底高度 1830m
16日10時 HST から
風向・風速東北東 5m/s 瞬間風速 9m/s
視程10km以上
天気現象周辺でしゅう雨
全天の4割程度の雲 雲底高度 910m
全天の8割程度の雲 雲底高度 1830m
16日19時 HST から
風向・風速北東 3m/s
視程10km以上
少しの雲 雲底高度 760m
全天の4割程度の雲 雲底高度 1830m
PHNL 160530Z 1606/1712 06007KT P6SM FEW025 SCT060
FM162000 06010G17KT P6SM VCSH SCT030 BKN060
FM170500 05006KT P6SM FEW025 SCT060